createdAt,value
2023-09-06T00:00:53.364Z,0.00
2023-09-06T00:01:54.272Z,0.00
2023-09-06T00:02:54.324Z,0.00
2023-09-06T00:03:54.328Z,0.00
2023-09-06T00:04:54.327Z,0.00
2023-09-06T00:05:54.214Z,0.00
2023-09-06T00:06:54.227Z,0.00
2023-09-06T00:07:54.176Z,0.00
2023-09-06T00:08:54.163Z,0.00
2023-09-06T00:09:54.170Z,0.00
2023-09-06T00:10:54.148Z,0.00
2023-09-06T00:11:54.175Z,0.00
2023-09-06T00:12:54.119Z,0.00
2023-09-06T00:13:54.105Z,0.00
2023-09-06T00:14:54.084Z,0.00
2023-09-06T00:15:54.162Z,0.00
2023-09-06T00:16:54.080Z,0.00
2023-09-06T00:17:54.100Z,0.00
2023-09-06T00:18:54.077Z,0.00
2023-09-06T00:19:54.025Z,0.00
2023-09-06T00:20:54.020Z,0.00
2023-09-06T00:21:53.997Z,0.00
2023-09-06T00:22:53.980Z,0.00
2023-09-06T00:23:53.987Z,0.00
2023-09-06T00:24:54.037Z,0.00
2023-09-06T00:25:53.941Z,0.00
2023-09-06T00:26:53.968Z,0.00
2023-09-06T00:27:54.027Z,0.00
2023-09-06T00:28:53.911Z,0.00
2023-09-06T00:29:53.903Z,0.00
2023-09-06T00:30:54.012Z,0.00
2023-09-06T00:31:53.921Z,0.00
2023-09-06T00:32:53.957Z,0.00
2023-09-06T00:33:53.870Z,0.00
2023-09-06T00:34:53.830Z,0.00
2023-09-06T00:35:53.833Z,0.00
2023-09-06T00:36:53.854Z,0.00
2023-09-06T00:37:53.792Z,0.00
2023-09-06T00:38:53.783Z,0.00
2023-09-06T00:39:53.804Z,0.00
2023-09-06T00:40:53.760Z,0.00
2023-09-06T00:41:53.761Z,0.00
2023-09-06T00:42:53.792Z,0.00
2023-09-06T00:43:53.737Z,0.00
2023-09-06T00:44:53.694Z,0.00
2023-09-06T00:45:53.716Z,0.00
2023-09-06T00:46:53.722Z,0.00
2023-09-06T00:47:53.737Z,0.00
2023-09-06T00:48:53.705Z,0.00
2023-09-06T00:49:53.639Z,0.00
2023-09-06T00:50:53.633Z,0.00
2023-09-06T00:51:53.653Z,0.00
2023-09-06T00:52:53.638Z,0.00
2023-09-06T00:53:53.608Z,0.00
2023-09-06T00:54:53.598Z,0.00
2023-09-06T00:55:53.575Z,0.00
2023-09-06T00:56:53.557Z,0.00
2023-09-06T00:57:53.619Z,0.00
2023-09-06T00:58:53.517Z,0.00
2023-09-06T00:59:53.528Z,0.00
2023-09-06T01:00:53.551Z,0.00
2023-09-06T01:01:53.679Z,0.00
2023-09-06T01:02:53.570Z,0.00
2023-09-06T01:03:53.553Z,0.00
2023-09-06T01:04:53.451Z,0.00
2023-09-06T01:05:53.467Z,0.00
2023-09-06T01:06:53.457Z,0.00
2023-09-06T01:07:53.420Z,0.00
2023-09-06T01:08:53.496Z,0.00
2023-09-06T01:09:53.414Z,0.00
2023-09-06T01:10:53.375Z,0.00
2023-09-06T01:11:53.394Z,0.00
2023-09-06T01:12:53.365Z,0.00
2023-09-06T01:13:53.339Z,0.00
2023-09-06T01:14:53.330Z,0.00
2023-09-06T01:15:53.415Z,0.00
2023-09-06T01:16:53.421Z,0.00
2023-09-06T01:17:53.371Z,0.00
2023-09-06T01:18:53.327Z,0.00
2023-09-06T01:19:53.271Z,0.00
2023-09-06T01:20:53.283Z,0.00
2023-09-06T01:21:53.247Z,0.00
2023-09-06T01:22:53.223Z,0.00
2023-09-06T01:23:53.230Z,0.00
2023-09-06T01:24:53.209Z,0.00
2023-09-06T01:25:53.191Z,0.00
2023-09-06T01:26:53.166Z,0.00
2023-09-06T01:27:53.254Z,0.00
2023-09-06T01:28:53.152Z,0.00
2023-09-06T01:29:53.155Z,0.00
2023-09-06T01:30:53.328Z,0.00
2023-09-06T01:31:53.240Z,0.00
2023-09-06T01:32:53.190Z,0.00
2023-09-06T01:33:53.131Z,0.00
2023-09-06T01:34:53.083Z,0.00
2023-09-06T01:35:53.072Z,0.00
2023-09-06T01:36:53.081Z,0.00
2023-09-06T01:37:53.033Z,0.00
2023-09-06T01:38:53.014Z,0.00
2023-09-06T01:39:53.043Z,0.00
2023-09-06T01:40:53.012Z,0.00
2023-09-06T01:41:52.993Z,0.00
2023-09-06T01:42:52.981Z,0.00
2023-09-06T01:43:52.953Z,0.00
2023-09-06T01:44:52.998Z,0.00
2023-09-06T01:45:53.376Z,0.00
2023-09-06T01:46:53.011Z,0.00
2023-09-06T01:47:52.996Z,0.00
2023-09-06T01:48:52.967Z,0.00
2023-09-06T01:49:52.897Z,0.00
2023-09-06T01:50:52.882Z,0.00
2023-09-06T01:51:52.901Z,0.00
2023-09-06T01:52:52.848Z,0.00
2023-09-06T01:53:52.848Z,0.00
2023-09-06T01:54:52.902Z,0.00
2023-09-06T01:55:52.815Z,0.00
2023-09-06T01:56:52.811Z,0.00
2023-09-06T01:57:52.944Z,0.00
2023-09-06T01:58:52.781Z,0.00
2023-09-06T01:59:52.786Z,0.00
2023-09-06T02:00:52.790Z,0.00
2023-09-06T02:01:52.787Z,0.00
2023-09-06T02:02:52.769Z,0.00
2023-09-06T02:03:52.835Z,0.00
2023-09-06T02:04:52.717Z,0.00
2023-09-06T02:05:52.721Z,0.00
2023-09-06T02:06:52.679Z,0.00
2023-09-06T02:07:52.668Z,0.00
2023-09-06T02:08:52.680Z,0.00
2023-09-06T02:09:52.666Z,0.00
2023-09-06T02:10:52.645Z,0.00
2023-09-06T02:11:52.617Z,0.00
2023-09-06T02:12:52.732Z,0.00
2023-09-06T02:13:52.584Z,0.00
2023-09-06T02:14:52.580Z,0.00
2023-09-06T02:15:52.618Z,0.00
2023-09-06T02:16:52.565Z,0.00
2023-09-06T02:17:52.658Z,0.00
2023-09-06T02:18:52.617Z,0.00
2023-09-06T02:19:52.512Z,0.00
2023-09-06T02:20:52.499Z,0.00
2023-09-06T02:21:52.517Z,0.00
2023-09-06T02:22:52.465Z,0.00
2023-09-06T02:23:52.466Z,0.00
2023-09-06T02:24:52.491Z,0.00
2023-09-06T02:25:52.435Z,0.00
2023-09-06T02:26:52.413Z,0.00
2023-09-06T02:27:52.484Z,0.00
2023-09-06T02:28:52.394Z,0.00
2023-09-06T02:29:52.407Z,0.00
2023-09-06T02:30:52.394Z,0.00
2023-09-06T02:31:52.447Z,0.00
2023-09-06T02:32:52.383Z,0.00
2023-09-06T02:33:52.344Z,0.00
2023-09-06T02:34:52.332Z,0.00
2023-09-06T02:35:52.331Z,0.00
2023-09-06T02:36:52.379Z,0.00
2023-09-06T02:37:52.286Z,0.00
2023-09-06T02:38:52.285Z,0.00
2023-09-06T02:39:52.260Z,0.00
2023-09-06T02:40:52.242Z,0.00
2023-09-06T02:41:52.254Z,0.00
2023-09-06T02:42:52.446Z,0.00
2023-09-06T02:43:52.233Z,0.00
2023-09-06T02:44:52.219Z,0.00
2023-09-06T02:45:52.200Z,0.00
2023-09-06T02:46:52.239Z,0.00
2023-09-06T02:47:52.596Z,0.00
2023-09-06T02:48:58.160Z,0.00
2023-09-06T02:49:52.156Z,0.00
2023-09-06T02:50:52.168Z,0.00
2023-09-06T02:51:52.108Z,0.00
2023-09-06T02:53:02.122Z,0.00
2023-09-06T02:53:52.082Z,0.00
2023-09-06T02:54:52.177Z,0.00
2023-09-06T02:55:52.065Z,0.00
2023-09-06T02:56:58.096Z,0.00
2023-09-06T02:57:52.102Z,0.00
2023-09-06T02:58:52.026Z,0.00
2023-09-06T02:59:52.027Z,0.00
2023-09-06T03:00:52.093Z,0.00
2023-09-06T03:01:52.075Z,0.00
2023-09-06T03:02:52.064Z,0.00
2023-09-06T03:03:52.087Z,0.00
2023-09-06T03:04:51.967Z,0.00
2023-09-06T03:05:51.942Z,0.00
2023-09-06T03:06:51.975Z,0.00
2023-09-06T03:07:51.955Z,0.00
2023-09-06T03:08:51.917Z,0.00
2023-09-06T03:09:51.965Z,0.00
2023-09-06T03:10:51.945Z,0.00
2023-09-06T03:11:51.924Z,0.00
2023-09-06T03:12:51.936Z,0.00
2023-09-06T03:13:51.822Z,0.00
2023-09-06T03:14:51.826Z,0.00
2023-09-06T03:15:51.867Z,0.00
2023-09-06T03:16:51.855Z,0.00
2023-09-06T03:17:51.839Z,0.00
2023-09-06T03:18:51.772Z,0.00
2023-09-06T03:19:51.757Z,0.00
2023-09-06T03:20:51.747Z,0.00
2023-09-06T03:21:51.751Z,0.00
2023-09-06T03:22:51.718Z,0.00
2023-09-06T03:23:51.730Z,0.00
2023-09-06T03:24:51.688Z,0.00
2023-09-06T03:25:51.728Z,0.00
2023-09-06T03:26:51.681Z,0.00
2023-09-06T03:27:51.649Z,0.00
2023-09-06T03:28:51.656Z,0.00
2023-09-06T03:29:51.709Z,0.00
2023-09-06T03:30:51.623Z,0.00
2023-09-06T03:31:51.661Z,0.00
2023-09-06T03:32:51.678Z,0.00
2023-09-06T03:33:51.571Z,0.00
2023-09-06T03:34:51.574Z,0.00
2023-09-06T03:35:51.563Z,0.00
2023-09-06T03:36:51.523Z,0.00
2023-09-06T03:37:51.552Z,0.00
2023-09-06T03:38:51.514Z,0.00
2023-09-06T03:39:51.503Z,0.00
2023-09-06T03:40:51.530Z,0.00
2023-09-06T03:41:51.502Z,0.00
2023-09-06T03:42:51.451Z,0.00
2023-09-06T03:43:51.559Z,0.00
2023-09-06T03:44:51.434Z,0.00
2023-09-06T03:45:51.431Z,0.00
2023-09-06T03:46:51.528Z,0.00
2023-09-06T03:47:51.615Z,0.00
2023-09-06T03:48:51.495Z,0.00
2023-09-06T03:49:51.417Z,0.00
2023-09-06T03:50:51.367Z,0.00
2023-09-06T03:51:51.346Z,0.00
2023-09-06T03:52:51.464Z,0.00
2023-09-06T03:53:51.319Z,0.00
2023-09-06T03:54:51.309Z,0.00
2023-09-06T03:55:51.368Z,0.00
2023-09-06T03:56:51.282Z,0.00
2023-09-06T03:57:51.273Z,0.00
2023-09-06T03:58:51.269Z,0.00
2023-09-06T03:59:51.262Z,0.00
2023-09-06T04:00:51.285Z,0.00
2023-09-06T04:01:51.373Z,0.00
2023-09-06T04:02:51.417Z,0.00
2023-09-06T04:03:51.281Z,0.00
2023-09-06T04:04:51.274Z,0.00
2023-09-06T04:05:51.139Z,1.00
2023-09-06T04:06:51.159Z,0.00
2023-09-06T04:07:51.176Z,0.00
2023-09-06T04:08:51.251Z,0.00
2023-09-06T04:09:51.092Z,1.00
2023-09-06T04:10:51.075Z,1.00
2023-09-06T04:11:51.062Z,1.00
2023-09-06T04:12:51.133Z,0.00
2023-09-06T04:13:51.087Z,0.00
2023-09-06T04:14:51.075Z,2.00
2023-09-06T04:15:50.997Z,1.00
2023-09-06T04:16:51.059Z,1.00
2023-09-06T04:17:51.077Z,0.00
2023-09-06T04:18:51.020Z,4.00
2023-09-06T04:19:50.947Z,4.00
2023-09-06T04:20:50.947Z,9.00
2023-09-06T04:21:50.919Z,5.00
2023-09-06T04:22:50.964Z,5.00
2023-09-06T04:23:50.889Z,4.00
2023-09-06T04:24:50.884Z,8.00
2023-09-06T04:25:50.927Z,7.00
2023-09-06T04:26:50.849Z,11.00
2023-09-06T04:27:50.853Z,13.00
2023-09-06T04:28:50.856Z,14.00
2023-09-06T04:29:50.832Z,20.00
2023-09-06T04:30:50.880Z,22.00
2023-09-06T04:31:50.810Z,27.00
2023-09-06T04:32:50.824Z,35.00
2023-09-06T04:33:50.772Z,38.00
2023-09-06T04:34:50.788Z,43.00
2023-09-06T04:35:50.751Z,55.00
2023-09-06T04:36:50.724Z,66.00
2023-09-06T04:37:50.859Z,79.00
2023-09-06T04:38:50.723Z,91.00
2023-09-06T04:39:50.719Z,107.00
2023-09-06T04:40:50.716Z,126.00
2023-09-06T04:41:50.665Z,142.00
2023-09-06T04:42:50.663Z,160.00
2023-09-06T04:43:50.706Z,187.00
2023-09-06T04:44:50.623Z,209.00
2023-09-06T04:45:50.649Z,241.00
2023-09-06T04:46:50.720Z,270.00
2023-09-06T04:47:50.622Z,302.00
2023-09-06T04:48:50.605Z,338.00
2023-09-06T04:49:50.559Z,377.00
2023-09-06T04:50:50.593Z,412.00
2023-09-06T04:51:50.545Z,454.00
2023-09-06T04:52:50.545Z,498.00
2023-09-06T04:53:50.512Z,546.00
2023-09-06T04:54:50.503Z,595.00
2023-09-06T04:55:50.860Z,647.00
2023-09-06T04:56:50.520Z,688.00
2023-09-06T04:57:50.525Z,729.00
2023-09-06T04:58:50.565Z,776.00
2023-09-06T04:59:50.460Z,822.00
2023-09-06T05:00:50.531Z,870.00
2023-09-06T05:01:50.419Z,914.00
2023-09-06T05:02:50.480Z,961.00
2023-09-06T05:03:50.469Z,1007.00
2023-09-06T05:04:50.382Z,1052.00
2023-09-06T05:05:50.524Z,1095.00
2023-09-06T05:06:50.350Z,1143.00
2023-09-06T05:07:50.353Z,1190.00
2023-09-06T05:08:50.318Z,1249.00
2023-09-06T05:09:50.326Z,1222.00
2023-09-06T05:10:50.304Z,1330.00
2023-09-06T05:11:50.280Z,1718.00
2023-09-06T05:12:50.277Z,1823.00
2023-09-06T05:13:50.342Z,1916.00
2023-09-06T05:14:50.265Z,2003.00
2023-09-06T05:15:50.263Z,2102.00
2023-09-06T05:16:50.276Z,2185.00
2023-09-06T05:17:50.260Z,2330.00
2023-09-06T05:18:50.711Z,2438.00
2023-09-06T05:19:50.287Z,2526.00
2023-09-06T05:20:50.164Z,2613.00
2023-09-06T05:21:50.197Z,2731.00
2023-09-06T05:22:50.210Z,2786.00
2023-09-06T05:23:50.137Z,2945.00
2023-09-06T05:24:50.168Z,2965.00
2023-09-06T05:25:52.215Z,3110.00
2023-09-06T05:26:50.106Z,3242.00
2023-09-06T05:27:50.149Z,3289.00
2023-09-06T05:28:50.399Z,3382.00
2023-09-06T05:29:50.146Z,3549.00
2023-09-06T05:30:50.080Z,3622.00
2023-09-06T05:31:50.096Z,3664.00
2023-09-06T05:32:50.061Z,3767.00
2023-09-06T05:33:50.040Z,3990.00
2023-09-06T05:34:50.005Z,4025.00
2023-09-06T05:35:50.010Z,4154.00
2023-09-06T05:36:49.977Z,4325.00
2023-09-06T05:37:50.098Z,4382.00
2023-09-06T05:38:49.948Z,4220.00
2023-09-06T05:39:49.978Z,4238.00
2023-09-06T05:40:50.033Z,4392.00
2023-09-06T05:41:49.909Z,4256.00
2023-09-06T05:42:49.896Z,4174.00
2023-09-06T05:43:49.920Z,4734.00
2023-09-06T05:44:49.860Z,5729.00
2023-09-06T05:45:49.896Z,8072.00
2023-09-06T05:46:49.965Z,9183.00
2023-09-06T05:47:49.923Z,9483.00
2023-09-06T05:48:49.831Z,8909.00
2023-09-06T05:49:49.879Z,8120.00
2023-09-06T05:50:49.792Z,7526.00
2023-09-06T05:51:49.787Z,7257.00
2023-09-06T05:52:49.796Z,7266.00
2023-09-06T05:53:49.806Z,7171.00
2023-09-06T05:54:50.749Z,7076.00
2023-09-06T05:55:49.767Z,6772.00
2023-09-06T05:56:49.718Z,6893.00
2023-09-06T05:57:49.729Z,8068.00
2023-09-06T05:58:49.696Z,7432.00
2023-09-06T05:59:49.789Z,6932.00
2023-09-06T06:00:49.690Z,8979.00
2023-09-06T06:01:49.735Z,8559.00
2023-09-06T06:02:49.880Z,8329.00
2023-09-06T06:03:49.695Z,11062.00
2023-09-06T06:04:49.648Z,14300.00
2023-09-06T06:05:49.614Z,12443.00
2023-09-06T06:06:49.593Z,11408.00
2023-09-06T06:07:49.577Z,10702.00
2023-09-06T06:08:49.641Z,8618.00
2023-09-06T06:09:49.551Z,12557.00
2023-09-06T06:10:49.639Z,16452.00
2023-09-06T06:11:49.533Z,13219.00
2023-09-06T06:12:49.507Z,10845.00
2023-09-06T06:14:00.338Z,13001.00
2023-09-06T06:14:49.502Z,11926.00
2023-09-06T06:15:49.539Z,12250.00
2023-09-06T06:16:49.516Z,17319.00
2023-09-06T06:17:49.499Z,17569.00
2023-09-06T06:18:49.441Z,16849.00
2023-09-06T06:19:59.348Z,20614.00
2023-09-06T06:20:49.451Z,20955.00
2023-09-06T06:21:49.435Z,17619.00
2023-09-06T06:22:49.404Z,14281.00
2023-09-06T06:23:49.389Z,11305.00
2023-09-06T06:24:49.395Z,18103.00
2023-09-06T06:25:49.385Z,22123.00
2023-09-06T06:26:49.342Z,23103.00
2023-09-06T06:27:49.469Z,19104.00
2023-09-06T06:28:49.597Z,20038.00
2023-09-06T06:29:49.375Z,20921.00
2023-09-06T06:30:49.303Z,18901.00
2023-09-06T06:31:49.376Z,17098.00
2023-09-06T06:32:49.324Z,20658.00
2023-09-06T06:33:49.267Z,14065.00
2023-09-06T06:34:49.243Z,14976.00
2023-09-06T06:35:49.266Z,24934.00
2023-09-06T06:36:49.221Z,24374.00
2023-09-06T06:37:49.207Z,19778.00
2023-09-06T06:38:49.229Z,18511.00
2023-09-06T06:39:49.163Z,18294.00
2023-09-06T06:40:49.214Z,20742.00
2023-09-06T06:41:49.153Z,21523.00
2023-09-06T06:42:49.143Z,19066.00
2023-09-06T06:43:49.190Z,18549.00
2023-09-06T06:44:49.126Z,16310.00
2023-09-06T06:45:49.157Z,18955.00
2023-09-06T06:46:49.140Z,23368.00
2023-09-06T06:47:49.150Z,24349.00
2023-09-06T06:48:49.060Z,26381.00
2023-09-06T06:49:49.077Z,26101.00
2023-09-06T06:50:49.042Z,23396.00
2023-09-06T06:51:49.054Z,19148.00
2023-09-06T06:52:49.049Z,19347.00
2023-09-06T06:53:49.022Z,22580.00
2023-09-06T06:54:48.995Z,22305.00
2023-09-06T06:55:49.001Z,19752.00
2023-09-06T06:56:48.964Z,18173.00
2023-09-06T06:57:48.948Z,18077.00
2023-09-06T06:58:48.964Z,18003.00
2023-09-06T06:59:48.927Z,16777.00
2023-09-06T07:00:48.920Z,17717.00
2023-09-06T07:01:48.993Z,17829.00
2023-09-06T07:02:48.947Z,16537.00
2023-09-06T07:03:48.904Z,15272.00
2023-09-06T07:04:48.936Z,14994.00
2023-09-06T07:05:48.880Z,15069.00
2023-09-06T07:06:48.891Z,16380.00
2023-09-06T07:07:48.946Z,15876.00
2023-09-06T07:08:48.823Z,12627.00
2023-09-06T07:09:48.809Z,7119.00
2023-09-06T07:10:48.848Z,82069.00
2023-09-06T07:11:48.790Z,83827.00
2023-09-06T07:12:48.769Z,80143.00
2023-09-06T07:13:48.810Z,80209.00
2023-09-06T07:14:48.750Z,75936.00
2023-09-06T07:15:48.801Z,76280.00
2023-09-06T07:16:48.997Z,74179.00
2023-09-06T07:17:48.821Z,70340.00
2023-09-06T07:18:48.700Z,41456.00
2023-09-06T07:19:48.743Z,34124.00
2023-09-06T07:20:48.675Z,32917.00
2023-09-06T07:21:48.666Z,37042.00
2023-09-06T07:22:48.740Z,41768.00
2023-09-06T07:23:48.689Z,37968.00
2023-09-06T07:24:48.635Z,33862.00
2023-09-06T07:25:48.841Z,28055.00
2023-09-06T07:26:48.616Z,32135.00
2023-09-06T07:27:48.586Z,36509.00
2023-09-06T07:28:48.635Z,30038.00
2023-09-06T07:29:48.569Z,35141.00
2023-09-06T07:30:48.547Z,41009.00
2023-09-06T07:31:48.549Z,36699.00
2023-09-06T07:32:48.565Z,30160.00
2023-09-06T07:33:48.582Z,31862.00
2023-09-06T07:34:48.509Z,34406.00
2023-09-06T07:35:48.508Z,29859.00
2023-09-06T07:36:48.480Z,35727.00
2023-09-06T07:37:48.705Z,36862.00
2023-09-06T07:38:58.996Z,29967.00
2023-09-06T07:39:48.430Z,28247.00
2023-09-06T07:40:59.005Z,35409.00
2023-09-06T07:43:06.407Z,36483.00
2023-09-06T07:44:07.312Z,35662.00
2023-09-06T07:45:07.369Z,37864.00
2023-09-06T07:47:23.061Z,72972.00
2023-09-06T07:48:24.223Z,72363.00
2023-09-06T07:49:25.215Z,37698.00
2023-09-06T07:50:23.879Z,35712.00
2023-09-06T07:51:23.895Z,39098.00
2023-09-06T07:52:23.856Z,35831.00
2023-09-06T07:53:23.854Z,32424.00
2023-09-06T07:54:30.362Z,35344.00
2023-09-06T07:55:23.817Z,39400.00
2023-09-06T07:56:23.851Z,32231.00
2023-09-06T07:57:23.789Z,32023.00
2023-09-06T07:58:23.828Z,37961.00
2023-09-06T07:59:23.904Z,32597.00
2023-09-06T08:00:23.775Z,32757.00
2023-09-06T08:01:23.760Z,39261.00
2023-09-06T08:02:23.721Z,31542.00
2023-09-06T08:03:23.746Z,74782.00
2023-09-06T08:04:23.771Z,72524.00
2023-09-06T08:05:23.732Z,72501.00
2023-09-06T08:06:23.773Z,74769.00
2023-09-06T08:07:23.698Z,73626.00
2023-09-06T08:08:23.678Z,73562.00
2023-09-06T08:09:23.656Z,74185.00
2023-09-06T08:10:23.635Z,74230.00
2023-09-06T08:11:23.624Z,71513.00
2023-09-06T08:12:23.678Z,38330.00
2023-09-06T08:13:23.609Z,35073.00
2023-09-06T08:14:23.655Z,75368.00
2023-09-06T08:15:25.366Z,70608.00
2023-09-06T08:16:25.302Z,37104.00
2023-09-06T08:17:43.180Z,73610.00
2023-09-06T08:18:33.900Z,73300.00
2023-09-06T08:19:22.508Z,74799.00
2023-09-06T08:20:23.582Z,74008.00
2023-09-06T08:21:24.293Z,73846.00
2023-09-06T08:22:39.206Z,74630.00
2023-09-06T08:23:23.487Z,76675.00
2023-09-06T08:24:23.495Z,77987.00
2023-09-06T08:25:23.453Z,76401.00
2023-09-06T08:26:23.505Z,77406.00
2023-09-06T08:27:25.011Z,76010.00
2023-09-06T08:28:23.444Z,75321.00
2023-09-06T08:29:23.480Z,73954.00
2023-09-06T08:30:23.513Z,73362.00
2023-09-06T08:31:23.469Z,73838.00
2023-09-06T08:32:24.208Z,76787.00
2023-09-06T08:33:23.446Z,75930.00
2023-09-06T08:34:23.418Z,78483.00
2023-09-06T08:35:24.022Z,79697.00
2023-09-06T08:36:23.313Z,76763.00
2023-09-06T08:37:27.275Z,76435.00
2023-09-06T08:39:08.444Z,76320.00
2023-09-06T08:39:47.732Z,76252.00
2023-09-06T08:40:25.083Z,75129.00
2023-09-06T08:41:26.268Z,75918.00
2023-09-06T08:42:44.728Z,79131.00
2023-09-06T08:43:38.979Z,76985.00
2023-09-06T08:44:24.174Z,75015.00
2023-09-06T08:45:26.387Z,74992.00
2023-09-06T08:46:23.202Z,76636.00
2023-09-06T08:47:39.642Z,76681.00
2023-09-06T08:48:25.702Z,74411.00
2023-09-06T08:49:25.716Z,74632.00
2023-09-06T08:50:24.339Z,77272.00
2023-09-06T08:51:23.742Z,81088.00
2023-09-06T08:52:23.814Z,79889.00
2023-09-06T08:54:33.469Z,79394.00
2023-09-06T08:56:08.940Z,74805.00
2023-09-06T08:57:10.008Z,77651.00
2023-09-06T08:58:16.815Z,77768.00
2023-09-06T08:59:13.723Z,78347.00
2023-09-06T09:00:09.880Z,78113.00
2023-09-06T09:01:11.791Z,79955.00
2023-09-06T09:02:09.866Z,81289.00
2023-09-06T09:03:09.975Z,78264.00
2023-09-06T09:04:09.944Z,77111.00
2023-09-06T09:05:18.029Z,77634.00
2023-09-06T09:06:09.823Z,78122.00
2023-09-06T09:07:09.788Z,79325.00
2023-09-06T09:08:09.789Z,82436.00
2023-09-06T09:09:09.821Z,82479.00
2023-09-06T09:10:09.854Z,76665.00
2023-09-06T09:11:09.748Z,75378.00
2023-09-06T09:12:09.737Z,74841.00
2023-09-06T09:13:09.811Z,74378.00
2023-09-06T09:14:09.714Z,77955.00
2023-09-06T09:15:22.678Z,80659.00
2023-09-06T09:16:09.866Z,80890.00
2023-09-06T09:17:09.845Z,79422.00
2023-09-06T09:18:10.014Z,79664.00
2023-09-06T09:19:09.731Z,81529.00
2023-09-06T09:20:09.635Z,79998.00
2023-09-06T09:21:10.132Z,81034.00
2023-09-06T09:22:09.711Z,76665.00
2023-09-06T09:23:10.643Z,77758.00
2023-09-06T09:24:10.086Z,79048.00
2023-09-06T09:25:09.644Z,76178.00
2023-09-06T09:26:09.592Z,75040.00
2023-09-06T09:27:10.750Z,77239.00
2023-09-06T09:28:09.606Z,79098.00
2023-09-06T09:29:10.599Z,81991.00
2023-09-06T09:30:38.879Z,80237.00
2023-09-06T09:31:10.185Z,81046.00
2023-09-06T09:32:11.290Z,82472.00
2023-09-06T09:33:09.670Z,79762.00
2023-09-06T09:34:34.321Z,78106.00
2023-09-06T09:35:09.588Z,79010.00
2023-09-06T09:36:09.562Z,79224.00
2023-09-06T09:37:09.457Z,73233.00
2023-09-06T09:39:24.113Z,70518.00
2023-09-06T09:40:34.502Z,75126.00
2023-09-06T09:41:59.509Z,78835.00
2023-09-06T09:43:05.607Z,82075.00
2023-09-06T09:43:28.771Z,79477.00
2023-09-06T09:44:21.363Z,78137.00
2023-09-06T09:45:21.379Z,79730.00
2023-09-06T09:46:23.879Z,79575.00
2023-09-06T09:47:43.946Z,80423.00
2023-09-06T09:48:21.347Z,79731.00
2023-09-06T09:49:21.527Z,80297.00
2023-09-06T09:50:21.343Z,80917.00
2023-09-06T09:51:21.539Z,80290.00
2023-09-06T09:52:24.789Z,80627.00
2023-09-06T09:53:22.593Z,80822.00
2023-09-06T09:54:21.939Z,82110.00
2023-09-06T09:55:32.827Z,80399.00
2023-09-06T09:56:21.213Z,78482.00
2023-09-06T09:57:24.383Z,78190.00
2023-09-06T09:58:21.241Z,78600.00
2023-09-06T09:59:21.902Z,82270.00
2023-09-06T10:00:48.012Z,80827.00
2023-09-06T10:01:53.042Z,81218.00
2023-09-06T10:02:31.342Z,81600.00
2023-09-06T10:03:22.511Z,82086.00
2023-09-06T10:04:57.608Z,79712.00
2023-09-06T10:05:21.977Z,79357.00
2023-09-06T10:06:21.128Z,82226.00
2023-09-06T10:07:22.047Z,80127.00
2023-09-06T10:08:21.124Z,81785.00
2023-09-06T10:09:21.052Z,78753.00
2023-09-06T10:10:22.512Z,77563.00
2023-09-06T10:11:21.037Z,75432.00
2023-09-06T10:12:22.853Z,77618.00
2023-09-06T10:13:21.020Z,81745.00
2023-09-06T10:30:31.358Z,80790.00
2023-09-06T10:30:38.057Z,81918.00
2023-09-06T10:31:45.413Z,79992.00
2023-09-06T10:32:36.715Z,80902.00
2023-09-06T10:33:36.693Z,80761.00
2023-09-06T10:34:36.733Z,80452.00
2023-09-06T10:35:36.739Z,81335.00
2023-09-06T10:36:36.724Z,77040.00
2023-09-06T10:37:38.180Z,77610.00
2023-09-06T10:38:46.509Z,77115.00
2023-09-06T10:39:36.614Z,80716.00
2023-09-06T10:40:36.611Z,82215.00
2023-09-06T10:41:36.635Z,77747.00
2023-09-06T10:42:37.274Z,76089.00
2023-09-06T10:43:38.307Z,78990.00
2023-09-06T10:44:38.311Z,80039.00
2023-09-06T10:45:36.557Z,79657.00
2023-09-06T10:46:36.735Z,80417.00
2023-09-06T10:47:42.857Z,79531.00
2023-09-06T10:49:57.126Z,81548.00
2023-09-06T10:50:50.502Z,81566.00
2023-09-06T10:51:43.500Z,81506.00
2023-09-06T10:52:48.117Z,81961.00
2023-09-06T10:53:44.623Z,82228.00
2023-09-06T10:54:43.691Z,80757.00
2023-09-06T10:55:57.619Z,79121.00
2023-09-06T11:02:28.225Z,82231.00
2023-09-06T11:02:58.473Z,81416.00
2023-09-06T11:04:03.302Z,81040.00
2023-09-06T11:07:04.076Z,78960.00
2023-09-06T11:07:58.002Z,80128.00
2023-09-06T11:08:47.216Z,77673.00
2023-09-06T11:09:54.543Z,77253.00
2023-09-06T11:15:29.991Z,82200.00
2023-09-06T11:16:35.350Z,78850.00
2023-09-06T11:28:04.657Z,79831.00
2023-09-06T11:30:12.397Z,79973.00
2023-09-06T11:30:20.407Z,77553.00
2023-09-06T11:31:32.775Z,79442.00
2023-09-06T11:32:18.382Z,76431.00
2023-09-06T11:33:17.824Z,78029.00
2023-09-06T11:34:21.424Z,81403.00
2023-09-06T11:35:22.800Z,80955.00
2023-09-06T11:36:47.406Z,79279.00
2023-09-06T11:37:31.571Z,81586.00
2023-09-06T11:38:43.040Z,80380.00
2023-09-06T11:39:56.485Z,81957.00
2023-09-06T11:53:41.917Z,81215.00
2023-09-06T11:54:40.971Z,81454.00
2023-09-06T12:02:41.360Z,79343.00
2023-09-06T12:03:23.144Z,81931.00
2023-09-06T12:04:37.247Z,75627.00
2023-09-06T12:05:19.777Z,75889.00
2023-09-06T12:06:05.314Z,75216.00
2023-09-06T12:07:05.081Z,77474.00
2023-09-06T12:08:05.746Z,77947.00
2023-09-06T12:09:05.994Z,79410.00
2023-09-06T12:10:07.384Z,79229.00
2023-09-06T12:11:05.873Z,79561.00
2023-09-06T12:12:06.352Z,81493.00
2023-09-06T12:13:07.709Z,81301.00
2023-09-06T12:16:28.724Z,76372.00
2023-09-06T12:17:52.293Z,76592.00
2023-09-06T12:20:46.912Z,80944.00
2023-09-06T12:21:46.875Z,81223.00
2023-09-06T12:22:52.007Z,81031.00
2023-09-06T12:23:49.544Z,80695.00
2023-09-06T12:25:14.389Z,78677.00
2023-09-06T12:25:51.865Z,78528.00
2023-09-06T12:26:47.800Z,80398.00
2023-09-06T12:27:49.368Z,80102.00
2023-09-06T12:28:49.341Z,78345.00
2023-09-06T12:29:47.664Z,78972.00
2023-09-06T12:30:46.744Z,80114.00
2023-09-06T12:31:53.014Z,80712.00
2023-09-06T12:32:47.561Z,78715.00
2023-09-06T12:33:46.883Z,79286.00
2023-09-06T12:34:50.008Z,80580.00
2023-09-06T12:35:46.658Z,81604.00
2023-09-06T12:36:47.507Z,78813.00
2023-09-06T12:37:46.604Z,82196.00
2023-09-06T12:38:50.495Z,78700.00
2023-09-06T12:39:49.354Z,77363.00
2023-09-06T12:43:02.430Z,78363.00
2023-09-06T12:44:02.096Z,79707.00
2023-09-06T12:45:02.758Z,76120.00
2023-09-06T12:46:09.896Z,80880.00
2023-09-06T12:47:03.766Z,77842.00
2023-09-06T12:50:14.045Z,79716.00
2023-09-06T12:50:19.444Z,80357.00
2023-09-06T12:51:46.047Z,78933.00
2023-09-06T12:52:28.845Z,77228.00
2023-09-06T12:53:36.433Z,78648.00
2023-09-06T12:55:00.728Z,81504.00
2023-09-06T12:55:19.501Z,80041.00
2023-09-06T12:56:55.960Z,81167.00
2023-09-06T12:57:24.678Z,81803.00
2023-09-06T12:58:45.919Z,81695.00
2023-09-06T12:59:20.537Z,81525.00
2023-09-06T13:00:19.354Z,79092.00
2023-09-06T13:01:19.471Z,77361.00
2023-09-06T13:02:19.442Z,75486.00
2023-09-06T13:03:19.338Z,76800.00
2023-09-06T13:04:19.422Z,78451.00
2023-09-06T13:05:20.417Z,78277.00
2023-09-06T13:06:36.775Z,76941.00
2023-09-06T13:09:52.520Z,76370.00
2023-09-06T13:10:34.625Z,78210.00
2023-09-06T13:11:00.807Z,77164.00
2023-09-06T13:11:58.707Z,76338.00
2023-09-06T13:12:58.437Z,79099.00
2023-09-06T13:14:54.977Z,79020.00
2023-09-06T13:15:01.992Z,79962.00
2023-09-06T13:17:04.440Z,82372.00
2023-09-06T13:17:35.100Z,77407.00
2023-09-06T13:18:21.358Z,78040.00
2023-09-06T13:19:10.317Z,81042.00
2023-09-06T13:20:12.567Z,77662.00
2023-09-06T13:21:09.771Z,76334.00
2023-09-06T13:22:50.519Z,79557.00
2023-09-06T13:27:13.923Z,76934.00
2023-09-06T13:28:15.454Z,74860.00
2023-09-06T13:29:25.274Z,78543.00
2023-09-06T13:33:40.019Z,78564.00
2023-09-06T13:34:47.539Z,76214.00
2023-09-06T13:35:55.696Z,77194.00
2023-09-06T13:36:53.561Z,77173.00
2023-09-06T13:40:05.955Z,80348.00
2023-09-06T13:41:07.005Z,80763.00
2023-09-06T13:42:07.659Z,75591.00
2023-09-06T13:45:22.261Z,75958.00
2023-09-06T13:48:37.339Z,78112.00
2023-09-06T13:51:53.715Z,76107.00